createdAt,value
2022-12-31T00:04:33.405Z,18.97
2022-12-31T00:09:36.801Z,16.37
2022-12-31T00:14:40.239Z,19.30
2022-12-31T00:19:43.645Z,19.83
2022-12-31T00:24:46.948Z,19.67
2022-12-31T00:29:50.316Z,21.57
2022-12-31T05:33:54.382Z,6.40
2022-12-31T05:38:57.463Z,6.03
2022-12-31T05:44:00.318Z,5.80
2022-12-31T05:49:03.214Z,5.73
2022-12-31T05:54:06.145Z,5.40
2022-12-31T05:59:09.040Z,4.60
2022-12-31T06:04:11.948Z,4.83
2022-12-31T06:09:16.419Z,4.47
2022-12-31T06:14:19.285Z,4.47
2022-12-31T06:19:22.198Z,4.37
2022-12-31T06:24:25.079Z,4.17
2022-12-31T06:29:27.915Z,4.43
2022-12-31T06:34:30.771Z,4.43
2022-12-31T06:39:33.646Z,4.30
2022-12-31T06:44:36.508Z,3.63
2022-12-31T06:49:40.852Z,3.67
2022-12-31T06:54:44.098Z,3.73
2022-12-31T06:59:47.312Z,3.40
2022-12-31T07:05:08.863Z,4.17
2022-12-31T07:10:14.716Z,3.27
2022-12-31T07:15:40.620Z,3.77
2022-12-31T07:20:43.727Z,3.83
2022-12-31T07:26:09.170Z,4.47
2022-12-31T07:31:28.460Z,4.20
2022-12-31T07:37:10.437Z,4.27
2022-12-31T07:42:27.780Z,3.70
2022-12-31T07:47:31.038Z,4.20
2022-12-31T07:52:34.445Z,3.50
2022-12-31T07:58:01.461Z,4.27
2022-12-31T08:03:30.578Z,4.40
2022-12-31T08:08:46.665Z,4.37
2022-12-31T08:13:50.650Z,4.20
2022-12-31T08:18:53.817Z,3.97
2022-12-31T08:24:11.564Z,3.60
2022-12-31T08:29:33.096Z,3.93
2022-12-31T08:34:57.572Z,3.93
2022-12-31T08:40:27.241Z,4.63
2022-12-31T08:45:38.427Z,4.50
2022-12-31T08:50:41.596Z,4.80
2022-12-31T08:55:45.254Z,4.47
2022-12-31T09:00:51.724Z,4.20
2022-12-31T09:06:27.846Z,3.80
2022-12-31T09:11:34.791Z,3.70
2022-12-31T09:16:43.746Z,3.67
2022-12-31T09:21:47.078Z,3.73
2022-12-31T09:27:14.343Z,3.53
2022-12-31T09:32:44.955Z,3.70
2022-12-31T09:37:50.207Z,3.50
2022-12-31T09:43:08.166Z,3.60
2022-12-31T09:48:46.914Z,3.80
2022-12-31T09:54:26.818Z,3.23
2022-12-31T09:59:39.664Z,3.83
2022-12-31T10:05:13.022Z,3.63
2022-12-31T10:10:34.803Z,3.60
2022-12-31T10:15:58.738Z,3.37
2022-12-31T10:21:19.844Z,3.50
2022-12-31T10:26:46.244Z,2.50
2022-12-31T10:32:29.415Z,2.70
2022-12-31T10:38:10.963Z,2.80
2022-12-31T10:43:44.587Z,3.80
2022-12-31T10:49:17.832Z,2.40
2022-12-31T10:54:39.853Z,3.00
2022-12-31T11:00:09.541Z,2.13
2022-12-31T11:05:49.186Z,2.30
2022-12-31T11:10:55.223Z,2.07
2022-12-31T11:16:18.306Z,2.87
2022-12-31T11:21:54.788Z,2.80
2022-12-31T11:27:03.343Z,2.57
2022-12-31T11:32:35.011Z,2.30
2022-12-31T11:37:44.511Z,2.57
2022-12-31T11:42:56.910Z,2.80
2022-12-31T11:48:30.468Z,2.63
2022-12-31T11:53:50.799Z,2.87
2022-12-31T11:58:55.257Z,2.50
2022-12-31T12:03:58.297Z,2.20
2022-12-31T12:09:04.857Z,3.30
2022-12-31T12:14:35.377Z,2.60
2022-12-31T12:19:47.101Z,3.13
2022-12-31T12:25:07.742Z,2.30
2022-12-31T12:30:21.697Z,2.27
2022-12-31T12:35:30.658Z,2.50
2022-12-31T12:40:34.685Z,2.80
2022-12-31T12:45:47.795Z,2.70
2022-12-31T12:50:54.496Z,2.87
2022-12-31T12:56:09.218Z,2.40
2022-12-31T13:01:30.131Z,3.67
2022-12-31T13:06:57.860Z,3.40
2022-12-31T13:12:24.672Z,2.60
2022-12-31T13:17:49.789Z,2.87
2022-12-31T13:23:03.115Z,3.00
2022-12-31T13:28:10.146Z,2.90
2022-12-31T13:33:36.629Z,2.70
2022-12-31T13:38:44.075Z,3.00
2022-12-31T13:43:59.014Z,3.13
2022-12-31T13:49:14.934Z,3.33
2022-12-31T13:54:57.797Z,2.87
2022-12-31T14:00:04.172Z,3.27
2022-12-31T14:05:27.512Z,2.90
2022-12-31T14:11:05.329Z,2.77
2022-12-31T14:16:33.583Z,2.80
2022-12-31T14:21:44.330Z,2.87
2022-12-31T14:26:50.665Z,2.97
2022-12-31T14:32:14.073Z,3.60
2022-12-31T14:37:34.057Z,3.20
2022-12-31T14:42:55.917Z,3.47
2022-12-31T14:48:23.857Z,4.10
2022-12-31T14:53:27.885Z,3.03
2022-12-31T14:58:30.692Z,3.70
2022-12-31T15:03:46.249Z,4.03
2022-12-31T15:08:49.235Z,3.77
2022-12-31T15:13:56.090Z,3.87
2022-12-31T15:19:11.411Z,3.77
2022-12-31T15:24:19.695Z,3.87
2022-12-31T15:29:29.204Z,4.23
2022-12-31T15:34:36.429Z,3.77
2022-12-31T15:39:41.817Z,4.10
2022-12-31T15:44:56.541Z,4.63
2022-12-31T15:50:07.064Z,4.83
2022-12-31T15:55:20.224Z,3.60
2022-12-31T16:00:24.297Z,4.50
2022-12-31T16:05:27.862Z,4.00
2022-12-31T16:10:33.080Z,4.40
2022-12-31T16:15:36.152Z,3.80
2022-12-31T16:20:44.765Z,4.00
2022-12-31T16:25:47.791Z,3.77
2022-12-31T16:31:08.421Z,3.20
2022-12-31T16:36:22.005Z,3.97
2022-12-31T16:41:25.106Z,3.83
2022-12-31T16:46:33.325Z,3.47
2022-12-31T16:51:37.959Z,4.00
2022-12-31T16:56:42.643Z,3.93
2022-12-31T17:01:45.773Z,3.40
2022-12-31T17:06:49.003Z,3.63
2022-12-31T17:11:57.996Z,4.27
2022-12-31T17:17:07.865Z,3.43
2022-12-31T17:22:32.971Z,3.90
2022-12-31T17:27:39.168Z,4.70
2022-12-31T17:32:43.412Z,4.93
2022-12-31T17:37:46.257Z,4.70
2022-12-31T17:42:49.087Z,4.37
2022-12-31T17:47:53.888Z,5.00
2022-12-31T17:53:18.155Z,4.80
2022-12-31T17:58:29.817Z,4.57
2022-12-31T18:03:33.113Z,4.07
2022-12-31T18:08:36.028Z,4.47
2022-12-31T18:13:38.977Z,4.13
2022-12-31T18:18:42.401Z,3.83
2022-12-31T18:23:46.879Z,4.10
2022-12-31T18:28:50.336Z,4.10
2022-12-31T18:33:54.576Z,3.53
2022-12-31T18:38:57.486Z,3.83
2022-12-31T18:44:00.357Z,3.87
2022-12-31T18:49:03.225Z,3.80
2022-12-31T18:54:06.482Z,3.83
2022-12-31T18:59:09.502Z,3.17
2022-12-31T19:04:24.992Z,4.20
2022-12-31T19:09:45.192Z,3.43
2022-12-31T19:14:49.191Z,3.67
2022-12-31T19:19:52.079Z,3.83
2022-12-31T19:24:54.906Z,3.97
2022-12-31T19:29:57.787Z,3.67
2022-12-31T19:35:00.680Z,2.97
2022-12-31T19:40:03.860Z,3.80
2022-12-31T19:45:07.399Z,3.80
2022-12-31T19:50:30.685Z,3.87
2022-12-31T19:55:33.670Z,3.20
2022-12-31T20:00:36.613Z,3.60
2022-12-31T20:05:39.505Z,3.00
2022-12-31T20:10:42.758Z,3.20
2022-12-31T20:15:47.892Z,4.10
2022-12-31T20:20:55.832Z,3.93
2022-12-31T20:26:00.206Z,3.70
2022-12-31T20:31:07.758Z,3.60
2022-12-31T20:36:13.242Z,3.40
2022-12-31T20:41:18.421Z,3.83
2022-12-31T20:46:23.695Z,4.53
2022-12-31T20:51:28.021Z,3.80
2022-12-31T20:56:33.134Z,4.20
2022-12-31T21:02:11.656Z,4.30
2022-12-31T21:06:59.680Z,4.63
2022-12-31T21:12:20.932Z,3.90
2022-12-31T21:17:23.842Z,4.17
2022-12-31T21:22:27.090Z,4.30
2022-12-31T21:27:30.648Z,4.27
2022-12-31T21:32:33.554Z,4.50
2022-12-31T21:37:58.694Z,4.57
2022-12-31T21:42:59.312Z,5.10
2022-12-31T21:48:20.597Z,4.77
2022-12-31T21:53:30.420Z,5.27
2022-12-31T21:58:42.150Z,6.37
2022-12-31T22:03:45.340Z,6.80
2022-12-31T22:08:53.897Z,6.80
2022-12-31T22:13:57.427Z,6.67
2022-12-31T22:19:00.396Z,6.67
2022-12-31T22:24:03.315Z,6.50
2022-12-31T22:29:06.157Z,6.57
2022-12-31T22:34:09.091Z,5.50
2022-12-31T22:39:43.525Z,7.07
2022-12-31T22:44:38.639Z,6.60
2022-12-31T22:49:41.591Z,7.93
2022-12-31T22:54:44.484Z,6.63
2022-12-31T22:59:47.374Z,7.17
2022-12-31T23:04:50.272Z,13.60
2022-12-31T23:10:11.731Z,13.53
2022-12-31T23:15:33.284Z,14.53
2022-12-31T23:20:54.860Z,11.77
2022-12-31T23:26:01.652Z,8.03
2022-12-31T23:31:06.738Z,6.63
2022-12-31T23:36:09.809Z,6.83
2022-12-31T23:41:16.752Z,6.53
2022-12-31T23:46:19.683Z,6.23
2022-12-31T23:51:22.894Z,6.97
2022-12-31T23:56:25.750Z,6.50
